sensor_id;sensor_type;location;lat;lon;timestamp;temperature;humidity
62259;DHT22;48241;48.824;10.102;2022-08-19T00:01:50;22.00;77.40
62259;DHT22;48241;48.824;10.102;2022-08-19T00:04:19;22.00;77.30
62259;DHT22;48241;48.824;10.102;2022-08-19T00:06:46;21.80;77.70
62259;DHT22;48241;48.824;10.102;2022-08-19T00:09:15;21.80;78.90
62259;DHT22;48241;48.824;10.102;2022-08-19T00:11:42;21.50;80.30
62259;DHT22;48241;48.824;10.102;2022-08-19T00:14:11;21.70;80.00
62259;DHT22;48241;48.824;10.102;2022-08-19T00:16:38;21.50;81.10
62259;DHT22;48241;48.824;10.102;2022-08-19T00:19:04;21.40;82.70
62259;DHT22;48241;48.824;10.102;2022-08-19T00:21:30;21.20;84.00
62259;DHT22;48241;48.824;10.102;2022-08-19T00:23:56;21.30;84.50
62259;DHT22;48241;48.824;10.102;2022-08-19T00:26:24;21.20;82.80
62259;DHT22;48241;48.824;10.102;2022-08-19T00:28:50;21.30;83.40
62259;DHT22;48241;48.824;10.102;2022-08-19T00:31:15;21.10;84.50
62259;DHT22;48241;48.824;10.102;2022-08-19T00:33:41;21.20;84.80
62259;DHT22;48241;48.824;10.102;2022-08-19T00:36:09;21.10;85.00
62259;DHT22;48241;48.824;10.102;2022-08-19T00:38:36;20.90;86.20
62259;DHT22;48241;48.824;10.102;2022-08-19T00:41:03;21.00;86.00
62259;DHT22;48241;48.824;10.102;2022-08-19T00:43:30;21.00;85.40
62259;DHT22;48241;48.824;10.102;2022-08-19T00:45:56;21.10;84.50
62259;DHT22;48241;48.824;10.102;2022-08-19T00:48:22;20.90;84.50
62259;DHT22;48241;48.824;10.102;2022-08-19T00:50:50;21.00;85.20
62259;DHT22;48241;48.824;10.102;2022-08-19T00:53:22;20.90;85.40
62259;DHT22;48241;48.824;10.102;2022-08-19T00:55:53;20.90;85.70
62259;DHT22;48241;48.824;10.102;2022-08-19T00:58:22;20.90;85.80
62259;DHT22;48241;48.824;10.102;2022-08-19T01:00:50;21.00;86.10
62259;DHT22;48241;48.824;10.102;2022-08-19T01:03:18;20.90;85.80
62259;DHT22;48241;48.824;10.102;2022-08-19T01:05:45;20.60;87.10
62259;DHT22;48241;48.824;10.102;2022-08-19T01:08:14;20.70;86.90
62259;DHT22;48241;48.824;10.102;2022-08-19T01:10:45;20.70;87.00
62259;DHT22;48241;48.824;10.102;2022-08-19T01:13:15;20.80;86.70
62259;DHT22;48241;48.824;10.102;2022-08-19T01:15:46;20.70;87.20
62259;DHT22;48241;48.824;10.102;2022-08-19T01:18:15;20.70;87.70
62259;DHT22;48241;48.824;10.102;2022-08-19T01:20:42;21.00;86.00
62259;DHT22;48241;48.824;10.102;2022-08-19T01:23:07;20.90;86.50
62259;DHT22;48241;48.824;10.102;2022-08-19T01:25:42;21.10;86.00
62259;DHT22;48241;48.824;10.102;2022-08-19T01:28:25;21.10;86.50
62259;DHT22;48241;48.824;10.102;2022-08-19T01:30:52;21.10;85.40
62259;DHT22;48241;48.824;10.102;2022-08-19T01:33:18;20.90;86.10
62259;DHT22;48241;48.824;10.102;2022-08-19T01:35:45;20.90;86.70
62259;DHT22;48241;48.824;10.102;2022-08-19T01:38:23;21.00;85.90
62259;DHT22;48241;48.824;10.102;2022-08-19T01:40:49;20.90;86.10
62259;DHT22;48241;48.824;10.102;2022-08-19T01:43:15;21.00;86.30
62259;DHT22;48241;48.824;10.102;2022-08-19T01:45:41;21.10;86.30
62259;DHT22;48241;48.824;10.102;2022-08-19T01:48:07;21.10;86.60
62259;DHT22;48241;48.824;10.102;2022-08-19T01:50:34;21.10;85.60
62259;DHT22;48241;48.824;10.102;2022-08-19T01:53:02;21.00;86.50
62259;DHT22;48241;48.824;10.102;2022-08-19T01:55:28;21.10;85.80
62259;DHT22;48241;48.824;10.102;2022-08-19T01:57:58;21.20;84.80
62259;DHT22;48241;48.824;10.102;2022-08-19T02:00:28;21.00;85.30
62259;DHT22;48241;48.824;10.102;2022-08-19T02:02:54;20.80;85.90
62259;DHT22;48241;48.824;10.102;2022-08-19T02:05:20;20.80;85.50
62259;DHT22;48241;48.824;10.102;2022-08-19T02:07:47;20.90;86.10
62259;DHT22;48241;48.824;10.102;2022-08-19T02:10:21;20.80;86.30
62259;DHT22;48241;48.824;10.102;2022-08-19T02:12:48;20.80;85.50
62259;DHT22;48241;48.824;10.102;2022-08-19T02:15:15;21.00;84.70
62259;DHT22;48241;48.824;10.102;2022-08-19T02:17:41;20.90;85.60
62259;DHT22;48241;48.824;10.102;2022-08-19T02:20:07;20.90;85.30
62259;DHT22;48241;48.824;10.102;2022-08-19T02:22:33;20.90;86.20
62259;DHT22;48241;48.824;10.102;2022-08-19T02:24:59;20.80;85.40
62259;DHT22;48241;48.824;10.102;2022-08-19T02:27:25;20.70;86.60
62259;DHT22;48241;48.824;10.102;2022-08-19T02:29:51;20.70;86.10
62259;DHT22;48241;48.824;10.102;2022-08-19T02:32:18;20.90;84.60
62259;DHT22;48241;48.824;10.102;2022-08-19T02:34:47;20.80;85.10
62259;DHT22;48241;48.824;10.102;2022-08-19T02:37:13;20.60;87.40
62259;DHT22;48241;48.824;10.102;2022-08-19T02:39:58;20.90;85.80
62259;DHT22;48241;48.824;10.102;2022-08-19T02:42:24;20.90;83.60
62259;DHT22;48241;48.824;10.102;2022-08-19T02:44:50;20.90;85.50
62259;DHT22;48241;48.824;10.102;2022-08-19T02:47:17;21.00;84.50
62259;DHT22;48241;48.824;10.102;2022-08-19T02:49:44;21.20;83.40
62259;DHT22;48241;48.824;10.102;2022-08-19T02:52:10;21.30;83.20
62259;DHT22;48241;48.824;10.102;2022-08-19T02:54:37;21.40;83.30
62259;DHT22;48241;48.824;10.102;2022-08-19T02:57:04;21.40;82.90
62259;DHT22;48241;48.824;10.102;2022-08-19T02:59:30;21.30;82.70
62259;DHT22;48241;48.824;10.102;2022-08-19T03:01:56;21.40;82.90
62259;DHT22;48241;48.824;10.102;2022-08-19T03:04:22;21.40;83.10
62259;DHT22;48241;48.824;10.102;2022-08-19T03:06:48;21.30;85.10
62259;DHT22;48241;48.824;10.102;2022-08-19T03:09:15;21.10;85.70
62259;DHT22;48241;48.824;10.102;2022-08-19T03:11:41;21.10;86.70
62259;DHT22;48241;48.824;10.102;2022-08-19T03:14:08;21.10;86.50
62259;DHT22;48241;48.824;10.102;2022-08-19T03:16:48;20.90;88.40
62259;DHT22;48241;48.824;10.102;2022-08-19T03:19:17;20.90;88.30
62259;DHT22;48241;48.824;10.102;2022-08-19T03:21:43;21.00;88.80
62259;DHT22;48241;48.824;10.102;2022-08-19T03:24:11;21.00;88.90
62259;DHT22;48241;48.824;10.102;2022-08-19T03:26:42;20.90;88.60
62259;DHT22;48241;48.824;10.102;2022-08-19T03:29:09;20.80;89.20
62259;DHT22;48241;48.824;10.102;2022-08-19T03:31:37;20.70;90.00
62259;DHT22;48241;48.824;10.102;2022-08-19T03:34:03;20.40;90.00
62259;DHT22;48241;48.824;10.102;2022-08-19T03:36:28;20.30;90.60
62259;DHT22;48241;48.824;10.102;2022-08-19T03:38:57;20.30;91.10
62259;DHT22;48241;48.824;10.102;2022-08-19T03:41:29;20.10;91.20
62259;DHT22;48241;48.824;10.102;2022-08-19T03:43:55;20.20;91.30
62259;DHT22;48241;48.824;10.102;2022-08-19T03:46:24;20.10;91.50
62259;DHT22;48241;48.824;10.102;2022-08-19T03:48:53;20.00;91.70
62259;DHT22;48241;48.824;10.102;2022-08-19T03:51:27;20.10;91.70
62259;DHT22;48241;48.824;10.102;2022-08-19T03:53:54;19.80;92.30
62259;DHT22;48241;48.824;10.102;2022-08-19T03:56:20;19.90;92.30
62259;DHT22;48241;48.824;10.102;2022-08-19T03:58:46;20.20;92.00
62259;DHT22;48241;48.824;10.102;2022-08-19T04:01:16;20.00;92.00
62259;DHT22;48241;48.824;10.102;2022-08-19T04:03:43;20.20;91.60
62259;DHT22;48241;48.824;10.102;2022-08-19T04:06:14;20.40;91.20
62259;DHT22;48241;48.824;10.102;2022-08-19T04:08:42;20.00;91.30
62259;DHT22;48241;48.824;10.102;2022-08-19T04:11:23;20.10;91.60
62259;DHT22;48241;48.824;10.102;2022-08-19T04:13:51;20.20;91.10
62259;DHT22;48241;48.824;10.102;2022-08-19T04:16:22;20.20;91.20
62259;DHT22;48241;48.824;10.102;2022-08-19T04:18:49;20.30;91.20
62259;DHT22;48241;48.824;10.102;2022-08-19T04:21:21;20.50;91.00
62259;DHT22;48241;48.824;10.102;2022-08-19T04:23:47;20.50;90.70
62259;DHT22;48241;48.824;10.102;2022-08-19T04:26:19;20.30;90.80
62259;DHT22;48241;48.824;10.102;2022-08-19T04:28:46;20.30;91.00
62259;DHT22;48241;48.824;10.102;2022-08-19T04:31:17;20.40;90.70
62259;DHT22;48241;48.824;10.102;2022-08-19T04:33:43;20.20;91.40
62259;DHT22;48241;48.824;10.102;2022-08-19T04:36:15;20.20;91.20
62259;DHT22;48241;48.824;10.102;2022-08-19T04:38:41;20.40;91.10
62259;DHT22;48241;48.824;10.102;2022-08-19T04:41:07;20.20;91.30
62259;DHT22;48241;48.824;10.102;2022-08-19T04:43:51;20.20;91.80
62259;DHT22;48241;48.824;10.102;2022-08-19T04:46:16;20.40;91.00
62259;DHT22;48241;48.824;10.102;2022-08-19T04:48:43;20.40;91.20
62259;DHT22;48241;48.824;10.102;2022-08-19T04:51:10;20.50;91.00
62259;DHT22;48241;48.824;10.102;2022-08-19T04:53:39;20.50;90.60
62259;DHT22;48241;48.824;10.102;2022-08-19T04:56:09;20.60;90.20
62259;DHT22;48241;48.824;10.102;2022-08-19T04:58:36;20.70;90.20
62259;DHT22;48241;48.824;10.102;2022-08-19T05:01:03;20.90;89.40
62259;DHT22;48241;48.824;10.102;2022-08-19T05:03:29;20.90;89.10
62259;DHT22;48241;48.824;10.102;2022-08-19T05:05:58;21.00;89.30
62259;DHT22;48241;48.824;10.102;2022-08-19T05:08:23;21.10;89.00
62259;DHT22;48241;48.824;10.102;2022-08-19T05:10:51;21.10;88.70
62259;DHT22;48241;48.824;10.102;2022-08-19T05:13:18;21.20;87.90
62259;DHT22;48241;48.824;10.102;2022-08-19T05:15:53;21.30;87.10
62259;DHT22;48241;48.824;10.102;2022-08-19T05:18:19;21.10;87.00
62259;DHT22;48241;48.824;10.102;2022-08-19T05:21:11;21.00;88.80
62259;DHT22;48241;48.824;10.102;2022-08-19T05:23:56;21.20;88.20
62259;DHT22;48241;48.824;10.102;2022-08-19T05:26:23;21.20;88.20
62259;DHT22;48241;48.824;10.102;2022-08-19T05:28:48;21.30;87.90
62259;DHT22;48241;48.824;10.102;2022-08-19T05:31:14;21.40;87.70
62259;DHT22;48241;48.824;10.102;2022-08-19T05:33:39;21.40;87.50
62259;DHT22;48241;48.824;10.102;2022-08-19T05:36:06;21.40;87.50
62259;DHT22;48241;48.824;10.102;2022-08-19T05:38:33;21.50;86.80
62259;DHT22;48241;48.824;10.102;2022-08-19T05:40:59;21.70;86.30
62259;DHT22;48241;48.824;10.102;2022-08-19T05:43:24;21.70;86.20
62259;DHT22;48241;48.824;10.102;2022-08-19T05:45:50;21.80;85.20
62259;DHT22;48241;48.824;10.102;2022-08-19T05:48:16;21.80;85.30
62259;DHT22;48241;48.824;10.102;2022-08-19T05:50:46;21.70;85.60
62259;DHT22;48241;48.824;10.102;2022-08-19T05:53:12;21.80;85.30
62259;DHT22;48241;48.824;10.102;2022-08-19T05:55:38;21.80;85.30
62259;DHT22;48241;48.824;10.102;2022-08-19T05:58:04;21.80;85.20
62259;DHT22;48241;48.824;10.102;2022-08-19T06:00:33;21.90;85.10
62259;DHT22;48241;48.824;10.102;2022-08-19T06:02:59;21.90;85.30
62259;DHT22;48241;48.824;10.102;2022-08-19T06:05:29;21.90;84.80
62259;DHT22;48241;48.824;10.102;2022-08-19T06:07:54;21.80;85.00
62259;DHT22;48241;48.824;10.102;2022-08-19T06:10:20;21.40;85.90
62259;DHT22;48241;48.824;10.102;2022-08-19T06:12:47;21.40;86.50
62259;DHT22;48241;48.824;10.102;2022-08-19T06:15:13;21.50;87.30
62259;DHT22;48241;48.824;10.102;2022-08-19T06:17:40;21.50;86.70
62259;DHT22;48241;48.824;10.102;2022-08-19T06:20:09;21.40;87.20
62259;DHT22;48241;48.824;10.102;2022-08-19T06:22:44;21.40;86.80
62259;DHT22;48241;48.824;10.102;2022-08-19T06:25:11;21.30;86.90
62259;DHT22;48241;48.824;10.102;2022-08-19T06:27:37;21.30;86.50
62259;DHT22;48241;48.824;10.102;2022-08-19T06:30:04;21.40;86.80
62259;DHT22;48241;48.824;10.102;2022-08-19T06:32:31;21.10;86.90
62259;DHT22;48241;48.824;10.102;2022-08-19T06:34:56;21.00;88.60
62259;DHT22;48241;48.824;10.102;2022-08-19T06:37:22;20.90;89.00
62259;DHT22;48241;48.824;10.102;2022-08-19T06:39:48;21.10;88.90
62259;DHT22;48241;48.824;10.102;2022-08-19T06:42:14;21.20;88.20
62259;DHT22;48241;48.824;10.102;2022-08-19T06:44:45;21.30;87.10
62259;DHT22;48241;48.824;10.102;2022-08-19T06:47:13;21.30;87.80
62259;DHT22;48241;48.824;10.102;2022-08-19T06:49:39;21.20;87.40
62259;DHT22;48241;48.824;10.102;2022-08-19T06:52:05;21.20;88.20
62259;DHT22;48241;48.824;10.102;2022-08-19T06:54:31;21.20;87.30
62259;DHT22;48241;48.824;10.102;2022-08-19T06:56:58;21.20;88.20
62259;DHT22;48241;48.824;10.102;2022-08-19T06:59:27;21.20;87.70
62259;DHT22;48241;48.824;10.102;2022-08-19T07:01:56;21.20;88.00
62259;DHT22;48241;48.824;10.102;2022-08-19T07:04:29;21.30;87.80
62259;DHT22;48241;48.824;10.102;2022-08-19T07:07:00;21.50;87.70
62259;DHT22;48241;48.824;10.102;2022-08-19T07:09:27;21.50;86.30
62259;DHT22;48241;48.824;10.102;2022-08-19T07:11:53;21.50;86.80
62259;DHT22;48241;48.824;10.102;2022-08-19T07:14:23;21.50;86.90
62259;DHT22;48241;48.824;10.102;2022-08-19T07:16:51;21.50;86.70
62259;DHT22;48241;48.824;10.102;2022-08-19T07:19:18;21.40;86.80
62259;DHT22;48241;48.824;10.102;2022-08-19T07:21:46;21.40;87.20
62259;DHT22;48241;48.824;10.102;2022-08-19T07:24:12;21.50;87.10
62259;DHT22;48241;48.824;10.102;2022-08-19T07:26:40;21.50;86.50
62259;DHT22;48241;48.824;10.102;2022-08-19T07:29:07;21.50;87.10
62259;DHT22;48241;48.824;10.102;2022-08-19T07:31:33;21.50;87.10
62259;DHT22;48241;48.824;10.102;2022-08-19T07:34:04;21.40;87.20
62259;DHT22;48241;48.824;10.102;2022-08-19T07:36:34;21.30;87.90
62259;DHT22;48241;48.824;10.102;2022-08-19T07:39:05;21.10;89.50
62259;DHT22;48241;48.824;10.102;2022-08-19T07:41:31;21.10;89.80
62259;DHT22;48241;48.824;10.102;2022-08-19T07:43:59;21.00;89.90
62259;DHT22;48241;48.824;10.102;2022-08-19T07:46:29;20.90;90.50
62259;DHT22;48241;48.824;10.102;2022-08-19T07:48:55;21.20;89.20
62259;DHT22;48241;48.824;10.102;2022-08-19T07:51:21;21.30;88.70
62259;DHT22;48241;48.824;10.102;2022-08-19T07:53:48;21.50;88.20
62259;DHT22;48241;48.824;10.102;2022-08-19T07:56:17;21.20;88.20
62259;DHT22;48241;48.824;10.102;2022-08-19T07:58:45;21.30;88.40
62259;DHT22;48241;48.824;10.102;2022-08-19T08:01:14;21.50;88.20
62259;DHT22;48241;48.824;10.102;2022-08-19T08:03:40;21.80;86.30
62259;DHT22;48241;48.824;10.102;2022-08-19T08:06:25;21.90;85.20
62259;DHT22;48241;48.824;10.102;2022-08-19T08:09:10;21.80;85.70
62259;DHT22;48241;48.824;10.102;2022-08-19T08:11:58;22.00;85.30
62259;DHT22;48241;48.824;10.102;2022-08-19T08:14:32;22.30;84.00
62259;DHT22;48241;48.824;10.102;2022-08-19T08:16:58;22.40;83.00
62259;DHT22;48241;48.824;10.102;2022-08-19T08:19:26;22.50;82.10
62259;DHT22;48241;48.824;10.102;2022-08-19T08:21:54;22.50;82.00
62259;DHT22;48241;48.824;10.102;2022-08-19T08:24:20;22.60;81.40
62259;DHT22;48241;48.824;10.102;2022-08-19T08:26:46;22.60;81.40
62259;DHT22;48241;48.824;10.102;2022-08-19T08:29:12;22.70;81.40
62259;DHT22;48241;48.824;10.102;2022-08-19T08:31:40;22.80;80.80
62259;DHT22;48241;48.824;10.102;2022-08-19T08:34:06;22.90;80.00
62259;DHT22;48241;48.824;10.102;2022-08-19T08:36:32;22.90;79.80
62259;DHT22;48241;48.824;10.102;2022-08-19T08:39:00;23.00;80.00
62259;DHT22;48241;48.824;10.102;2022-08-19T08:44:26;23.00;80.00
62259;DHT22;48241;48.824;10.102;2022-08-19T08:47:00;23.10;79.90
62259;DHT22;48241;48.824;10.102;2022-08-19T08:49:33;23.10;79.90
62259;DHT22;48241;48.824;10.102;2022-08-19T08:54:37;23.10;79.90
62259;DHT22;48241;48.824;10.102;2022-08-19T08:57:09;23.00;80.00
62259;DHT22;48241;48.824;10.102;2022-08-19T08:59:38;23.00;79.90
62259;DHT22;48241;48.824;10.102;2022-08-19T09:02:04;22.90;79.90
62259;DHT22;48241;48.824;10.102;2022-08-19T09:04:30;22.80;80.80
62259;DHT22;48241;48.824;10.102;2022-08-19T09:14:43;23.40;79.90
62259;DHT22;48241;48.824;10.102;2022-08-19T09:17:12;23.50;78.70
62259;DHT22;48241;48.824;10.102;2022-08-19T09:19:58;23.50;77.30
62259;DHT22;48241;48.824;10.102;2022-08-19T09:22:26;23.60;77.80
62259;DHT22;48241;48.824;10.102;2022-08-19T09:24:53;23.50;77.30
62259;DHT22;48241;48.824;10.102;2022-08-19T09:27:20;23.60;77.00
62259;DHT22;48241;48.824;10.102;2022-08-19T09:29:52;23.40;75.60
62259;DHT22;48241;48.824;10.102;2022-08-19T09:32:19;23.20;75.80
62259;DHT22;48241;48.824;10.102;2022-08-19T09:34:45;23.20;76.90
62259;DHT22;48241;48.824;10.102;2022-08-19T09:37:11;23.10;76.20
62259;DHT22;48241;48.824;10.102;2022-08-19T09:39:38;22.90;76.10
62259;DHT22;48241;48.824;10.102;2022-08-19T09:42:06;22.80;76.20
62259;DHT22;48241;48.824;10.102;2022-08-19T09:44:40;22.80;76.20
62259;DHT22;48241;48.824;10.102;2022-08-19T09:47:07;22.80;76.30
62259;DHT22;48241;48.824;10.102;2022-08-19T09:49:33;22.70;77.00
62259;DHT22;48241;48.824;10.102;2022-08-19T09:52:05;22.40;78.30
62259;DHT22;48241;48.824;10.102;2022-08-19T09:54:33;22.50;78.10
62259;DHT22;48241;48.824;10.102;2022-08-19T09:56:59;22.20;78.30
62259;DHT22;48241;48.824;10.102;2022-08-19T09:59:28;22.20;78.40
62259;DHT22;48241;48.824;10.102;2022-08-19T10:01:54;22.40;78.50
62259;DHT22;48241;48.824;10.102;2022-08-19T10:04:21;22.40;76.90
62259;DHT22;48241;48.824;10.102;2022-08-19T10:06:48;22.50;77.00
62259;DHT22;48241;48.824;10.102;2022-08-19T10:09:15;22.40;78.30
62259;DHT22;48241;48.824;10.102;2022-08-19T10:11:43;22.20;78.90
62259;DHT22;48241;48.824;10.102;2022-08-19T10:14:09;22.20;78.00
62259;DHT22;48241;48.824;10.102;2022-08-19T10:16:36;22.30;78.50
62259;DHT22;48241;48.824;10.102;2022-08-19T10:19:02;22.50;78.50
62259;DHT22;48241;48.824;10.102;2022-08-19T10:21:30;22.30;79.50
62259;DHT22;48241;48.824;10.102;2022-08-19T10:23:58;22.50;78.10
62259;DHT22;48241;48.824;10.102;2022-08-19T10:26:26;22.40;78.10
62259;DHT22;48241;48.824;10.102;2022-08-19T10:28:53;22.30;78.00
62259;DHT22;48241;48.824;10.102;2022-08-19T10:31:28;22.20;77.50
62259;DHT22;48241;48.824;10.102;2022-08-19T10:33:54;22.30;78.20
62259;DHT22;48241;48.824;10.102;2022-08-19T10:36:29;22.30;77.90
62259;DHT22;48241;48.824;10.102;2022-08-19T10:38:58;22.00;79.20
62259;DHT22;48241;48.824;10.102;2022-08-19T10:41:26;22.20;78.50
62259;DHT22;48241;48.824;10.102;2022-08-19T10:43:54;22.30;79.30
62259;DHT22;48241;48.824;10.102;2022-08-19T10:46:22;22.10;79.40
62259;DHT22;48241;48.824;10.102;2022-08-19T10:48:48;22.00;80.40
62259;DHT22;48241;48.824;10.102;2022-08-19T10:51:15;22.10;81.20
62259;DHT22;48241;48.824;10.102;2022-08-19T10:53:59;22.10;80.70
62259;DHT22;48241;48.824;10.102;2022-08-19T10:56:26;22.00;81.90
62259;DHT22;48241;48.824;10.102;2022-08-19T10:59:10;22.10;81.60
62259;DHT22;48241;48.824;10.102;2022-08-19T11:01:38;22.10;82.00
62259;DHT22;48241;48.824;10.102;2022-08-19T11:04:04;22.00;81.80
62259;DHT22;48241;48.824;10.102;2022-08-19T11:06:33;22.00;82.50
62259;DHT22;48241;48.824;10.102;2022-08-19T11:08:59;22.00;83.40
62259;DHT22;48241;48.824;10.102;2022-08-19T11:11:26;21.80;85.40
62259;DHT22;48241;48.824;10.102;2022-08-19T11:13:53;21.70;87.80
62259;DHT22;48241;48.824;10.102;2022-08-19T11:16:22;21.50;87.80
62259;DHT22;48241;48.824;10.102;2022-08-19T11:18:53;21.50;88.50
62259;DHT22;48241;48.824;10.102;2022-08-19T11:21:39;21.60;89.20
62259;DHT22;48241;48.824;10.102;2022-08-19T11:24:10;21.50;90.10
62259;DHT22;48241;48.824;10.102;2022-08-19T11:26:38;21.30;90.50
62259;DHT22;48241;48.824;10.102;2022-08-19T11:29:05;21.20;91.70
62259;DHT22;48241;48.824;10.102;2022-08-19T11:31:34;21.30;91.50
62259;DHT22;48241;48.824;10.102;2022-08-19T11:34:03;21.10;91.50
62259;DHT22;48241;48.824;10.102;2022-08-19T11:36:30;21.00;91.90
62259;DHT22;48241;48.824;10.102;2022-08-19T11:38:57;21.00;91.90
62259;DHT22;48241;48.824;10.102;2022-08-19T11:41:23;21.10;92.00
62259;DHT22;48241;48.824;10.102;2022-08-19T11:43:50;21.00;92.10
62259;DHT22;48241;48.824;10.102;2022-08-19T11:46:18;21.00;92.60
62259;DHT22;48241;48.824;10.102;2022-08-19T11:48:44;20.80;93.10
62259;DHT22;48241;48.824;10.102;2022-08-19T11:51:12;20.90;93.00
62259;DHT22;48241;48.824;10.102;2022-08-19T11:53:38;20.80;93.50
62259;DHT22;48241;48.824;10.102;2022-08-19T11:56:05;20.80;93.30
62259;DHT22;48241;48.824;10.102;2022-08-19T11:58:32;20.80;93.40
62259;DHT22;48241;48.824;10.102;2022-08-19T12:00:57;20.90;93.10
62259;DHT22;48241;48.824;10.102;2022-08-19T12:03:23;20.90;93.50
62259;DHT22;48241;48.824;10.102;2022-08-19T12:05:49;20.90;93.10
62259;DHT22;48241;48.824;10.102;2022-08-19T12:08:16;20.80;93.80
62259;DHT22;48241;48.824;10.102;2022-08-19T12:10:42;20.90;93.00
62259;DHT22;48241;48.824;10.102;2022-08-19T12:13:09;20.90;93.70
62259;DHT22;48241;48.824;10.102;2022-08-19T12:15:39;20.90;93.50
62259;DHT22;48241;48.824;10.102;2022-08-19T12:18:09;21.00;93.60
62259;DHT22;48241;48.824;10.102;2022-08-19T12:20:36;20.80;93.50
62259;DHT22;48241;48.824;10.102;2022-08-19T12:23:03;20.80;93.80
62259;DHT22;48241;48.824;10.102;2022-08-19T12:25:29;20.70;93.50
62259;DHT22;48241;48.824;10.102;2022-08-19T12:27:56;20.50;94.10
62259;DHT22;48241;48.824;10.102;2022-08-19T12:30:21;20.70;93.90
62259;DHT22;48241;48.824;10.102;2022-08-19T12:32:47;20.50;94.20
62259;DHT22;48241;48.824;10.102;2022-08-19T12:35:13;20.20;95.40
62259;DHT22;48241;48.824;10.102;2022-08-19T12:37:39;20.40;95.30
62259;DHT22;48241;48.824;10.102;2022-08-19T12:40:10;20.60;94.60
62259;DHT22;48241;48.824;10.102;2022-08-19T12:42:37;20.60;94.80
62259;DHT22;48241;48.824;10.102;2022-08-19T12:45:11;20.50;94.50
62259;DHT22;48241;48.824;10.102;2022-08-19T12:47:37;20.60;94.60
62259;DHT22;48241;48.824;10.102;2022-08-19T12:50:03;20.60;94.70
62259;DHT22;48241;48.824;10.102;2022-08-19T12:52:37;20.60;94.40
62259;DHT22;48241;48.824;10.102;2022-08-19T12:55:06;20.60;94.90
62259;DHT22;48241;48.824;10.102;2022-08-19T12:57:32;20.40;95.00
62259;DHT22;48241;48.824;10.102;2022-08-19T13:00:12;20.50;94.50
62259;DHT22;48241;48.824;10.102;2022-08-19T13:02:40;20.50;94.90
62259;DHT22;48241;48.824;10.102;2022-08-19T13:05:08;20.40;95.00
62259;DHT22;48241;48.824;10.102;2022-08-19T13:07:34;20.40;95.10
62259;DHT22;48241;48.824;10.102;2022-08-19T13:10:00;20.50;95.20
62259;DHT22;48241;48.824;10.102;2022-08-19T13:12:26;20.40;95.30
62259;DHT22;48241;48.824;10.102;2022-08-19T13:14:53;20.50;95.50
62259;DHT22;48241;48.824;10.102;2022-08-19T13:17:19;20.40;95.90
62259;DHT22;48241;48.824;10.102;2022-08-19T13:19:45;20.40;95.90
62259;DHT22;48241;48.824;10.102;2022-08-19T13:22:11;20.50;95.60
62259;DHT22;48241;48.824;10.102;2022-08-19T13:24:37;20.40;96.10
62259;DHT22;48241;48.824;10.102;2022-08-19T13:27:04;20.00;96.90
62259;DHT22;48241;48.824;10.102;2022-08-19T13:29:29;20.10;96.80
62259;DHT22;48241;48.824;10.102;2022-08-19T13:32:13;19.90;97.20
62259;DHT22;48241;48.824;10.102;2022-08-19T13:34:57;19.70;98.60
62259;DHT22;48241;48.824;10.102;2022-08-19T13:37:23;19.80;98.20
62259;DHT22;48241;48.824;10.102;2022-08-19T13:40:10;19.90;97.60
62259;DHT22;48241;48.824;10.102;2022-08-19T13:42:39;19.80;97.70
62259;DHT22;48241;48.824;10.102;2022-08-19T13:45:06;19.70;97.70
62259;DHT22;48241;48.824;10.102;2022-08-19T13:47:34;19.90;97.40
62259;DHT22;48241;48.824;10.102;2022-08-19T13:50:03;19.80;97.80
62259;DHT22;48241;48.824;10.102;2022-08-19T13:52:29;19.60;98.30
62259;DHT22;48241;48.824;10.102;2022-08-19T13:54:55;19.70;98.00
62259;DHT22;48241;48.824;10.102;2022-08-19T13:57:22;19.60;98.40
62259;DHT22;48241;48.824;10.102;2022-08-19T13:59:47;19.60;98.30
62259;DHT22;48241;48.824;10.102;2022-08-19T14:02:13;19.70;98.00
62259;DHT22;48241;48.824;10.102;2022-08-19T14:04:39;19.60;97.70
62259;DHT22;48241;48.824;10.102;2022-08-19T14:07:04;19.90;97.20
62259;DHT22;48241;48.824;10.102;2022-08-19T14:09:30;19.60;97.50
62259;DHT22;48241;48.824;10.102;2022-08-19T14:11:56;19.70;97.70
62259;DHT22;48241;48.824;10.102;2022-08-19T14:14:22;19.70;97.30
62259;DHT22;48241;48.824;10.102;2022-08-19T14:16:49;19.80;97.10
62259;DHT22;48241;48.824;10.102;2022-08-19T14:19:14;19.90;97.00
62259;DHT22;48241;48.824;10.102;2022-08-19T14:21:40;20.00;97.10
62259;DHT22;48241;48.824;10.102;2022-08-19T14:24:07;20.10;96.20
62259;DHT22;48241;48.824;10.102;2022-08-19T14:26:33;20.10;95.80
62259;DHT22;48241;48.824;10.102;2022-08-19T14:28:59;20.10;95.90
62259;DHT22;48241;48.824;10.102;2022-08-19T14:31:27;20.10;95.80
62259;DHT22;48241;48.824;10.102;2022-08-19T14:33:52;20.20;95.10
62259;DHT22;48241;48.824;10.102;2022-08-19T14:36:19;20.10;96.00
62259;DHT22;48241;48.824;10.102;2022-08-19T14:38:46;20.10;96.30
62259;DHT22;48241;48.824;10.102;2022-08-19T14:43:46;19.80;96.40
62259;DHT22;48241;48.824;10.102;2022-08-19T14:46:17;19.80;96.80
62259;DHT22;48241;48.824;10.102;2022-08-19T14:48:45;19.90;96.30
62259;DHT22;48241;48.824;10.102;2022-08-19T14:51:10;20.20;96.70
62259;DHT22;48241;48.824;10.102;2022-08-19T14:53:36;20.20;96.30
62259;DHT22;48241;48.824;10.102;2022-08-19T14:56:10;20.40;95.40
62259;DHT22;48241;48.824;10.102;2022-08-19T14:58:37;20.40;94.80
62259;DHT22;48241;48.824;10.102;2022-08-19T15:01:09;20.00;95.60
62259;DHT22;48241;48.824;10.102;2022-08-19T15:03:35;20.20;96.20
62259;DHT22;48241;48.824;10.102;2022-08-19T15:06:03;20.20;95.70
62259;DHT22;48241;48.824;10.102;2022-08-19T15:08:31;20.40;94.90
62259;DHT22;48241;48.824;10.102;2022-08-19T15:10:57;20.40;94.20
62259;DHT22;48241;48.824;10.102;2022-08-19T15:13:25;20.40;94.70
62259;DHT22;48241;48.824;10.102;2022-08-19T15:15:52;20.50;94.30
62259;DHT22;48241;48.824;10.102;2022-08-19T15:18:18;20.50;94.10
62259;DHT22;48241;48.824;10.102;2022-08-19T15:20:46;20.50;94.30
62259;DHT22;48241;48.824;10.102;2022-08-19T15:23:17;20.50;94.60
62259;DHT22;48241;48.824;10.102;2022-08-19T15:25:43;20.40;94.80
62259;DHT22;48241;48.824;10.102;2022-08-19T15:28:10;20.40;94.30
62259;DHT22;48241;48.824;10.102;2022-08-19T15:30:40;20.50;94.80
62259;DHT22;48241;48.824;10.102;2022-08-19T15:33:07;20.60;94.80
62259;DHT22;48241;48.824;10.102;2022-08-19T15:35:32;20.50;94.70
62259;DHT22;48241;48.824;10.102;2022-08-19T15:37:58;20.70;94.50